sensor_id;sensor_type;location;lat;lon;timestamp;P1;durP1;ratioP1;P2;durP2;ratioP2
64598;SDS011;51008;51.504;11.548;2023-05-14T00:04:13;13.90;;;8.38;;
64598;SDS011;51008;51.504;11.548;2023-05-14T00:09:13;13.40;;;7.88;;
64598;SDS011;51008;51.504;11.548;2023-05-14T00:14:14;17.45;;;8.27;;
64598;SDS011;51008;51.504;11.548;2023-05-14T00:19:15;14.27;;;8.57;;
64598;SDS011;51008;51.504;11.548;2023-05-14T00:24:16;18.02;;;9.60;;
64598;SDS011;51008;51.504;11.548;2023-05-14T00:29:17;11.80;;;8.48;;
64598;SDS011;51008;51.504;11.548;2023-05-14T00:34:18;12.50;;;9.10;;
64598;SDS011;51008;51.504;11.548;2023-05-14T00:39:19;15.45;;;8.85;;
64598;SDS011;51008;51.504;11.548;2023-05-14T00:44:20;14.30;;;9.45;;
64598;SDS011;51008;51.504;11.548;2023-05-14T00:49:21;13.50;;;9.10;;
64598;SDS011;51008;51.504;11.548;2023-05-14T00:54:23;13.82;;;8.75;;
64598;SDS011;51008;51.504;11.548;2023-05-14T00:59:24;14.18;;;9.02;;
64598;SDS011;51008;51.504;11.548;2023-05-14T01:04:25;14.07;;;9.02;;
64598;SDS011;51008;51.504;11.548;2023-05-14T01:14:53;13.90;;;8.85;;
64598;SDS011;51008;51.504;11.548;2023-05-14T01:20:04;13.43;;;8.82;;
64598;SDS011;51008;51.504;11.548;2023-05-14T01:25:06;13.30;;;9.50;;
64598;SDS011;51008;51.504;11.548;2023-05-14T01:35:28;12.50;;;8.30;;
64598;SDS011;51008;51.504;11.548;2023-05-14T01:40:30;12.05;;;8.85;;
64598;SDS011;51008;51.504;11.548;2023-05-14T01:45:34;15.10;;;8.93;;
64598;SDS011;51008;51.504;11.548;2023-05-14T01:50:35;14.05;;;9.05;;
64598;SDS011;51008;51.504;11.548;2023-05-14T01:55:37;14.27;;;9.30;;
64598;SDS011;51008;51.504;11.548;2023-05-14T02:00:38;14.73;;;8.60;;
64598;SDS011;51008;51.504;11.548;2023-05-14T02:05:39;12.90;;;9.52;;
64598;SDS011;51008;51.504;11.548;2023-05-14T02:10:39;12.77;;;8.77;;
64598;SDS011;51008;51.504;11.548;2023-05-14T02:15:40;14.30;;;8.98;;
64598;SDS011;51008;51.504;11.548;2023-05-14T02:20:41;13.73;;;8.48;;
64598;SDS011;51008;51.504;11.548;2023-05-14T02:25:43;12.32;;;8.45;;
64598;SDS011;51008;51.504;11.548;2023-05-14T02:30:44;14.73;;;8.68;;
64598;SDS011;51008;51.504;11.548;2023-05-14T02:35:45;13.20;;;9.50;;
64598;SDS011;51008;51.504;11.548;2023-05-14T02:40:47;13.77;;;8.85;;
64598;SDS011;51008;51.504;11.548;2023-05-14T02:45:48;12.73;;;8.60;;
64598;SDS011;51008;51.504;11.548;2023-05-14T02:50:49;18.92;;;9.13;;
64598;SDS011;51008;51.504;11.548;2023-05-14T02:55:53;17.65;;;9.18;;
64598;SDS011;51008;51.504;11.548;2023-05-14T03:00:54;13.35;;;9.25;;
64598;SDS011;51008;51.504;11.548;2023-05-14T03:05:55;13.60;;;9.05;;
64598;SDS011;51008;51.504;11.548;2023-05-14T03:10:56;13.50;;;9.98;;
64598;SDS011;51008;51.504;11.548;2023-05-14T03:15:57;14.15;;;9.07;;
64598;SDS011;51008;51.504;11.548;2023-05-14T03:20:58;15.82;;;9.77;;
64598;SDS011;51008;51.504;11.548;2023-05-14T03:25:59;14.82;;;9.52;;
64598;SDS011;51008;51.504;11.548;2023-05-14T03:31:01;12.93;;;9.30;;
64598;SDS011;51008;51.504;11.548;2023-05-14T03:36:02;16.60;;;9.95;;
64598;SDS011;51008;51.504;11.548;2023-05-14T03:41:03;12.98;;;8.85;;
64598;SDS011;51008;51.504;11.548;2023-05-14T03:46:04;11.70;;;8.00;;
64598;SDS011;51008;51.504;11.548;2023-05-14T03:51:05;13.15;;;9.48;;
64598;SDS011;51008;51.504;11.548;2023-05-14T03:56:06;17.50;;;9.73;;
64598;SDS011;51008;51.504;11.548;2023-05-14T04:01:07;13.85;;;9.05;;
64598;SDS011;51008;51.504;11.548;2023-05-14T04:06:08;13.73;;;8.98;;
64598;SDS011;51008;51.504;11.548;2023-05-14T04:11:09;12.15;;;9.10;;
64598;SDS011;51008;51.504;11.548;2023-05-14T04:16:10;13.93;;;9.30;;
64598;SDS011;51008;51.504;11.548;2023-05-14T04:21:11;17.02;;;10.10;;
64598;SDS011;51008;51.504;11.548;2023-05-14T04:26:12;15.73;;;10.18;;
64598;SDS011;51008;51.504;11.548;2023-05-14T04:31:14;15.88;;;10.40;;
64598;SDS011;51008;51.504;11.548;2023-05-14T04:36:15;14.90;;;9.88;;
64598;SDS011;51008;51.504;11.548;2023-05-14T04:41:16;13.32;;;10.00;;
64598;SDS011;51008;51.504;11.548;2023-05-14T04:46:17;16.67;;;10.80;;
64598;SDS011;51008;51.504;11.548;2023-05-14T04:51:17;14.13;;;10.23;;
64598;SDS011;51008;51.504;11.548;2023-05-14T04:56:18;18.08;;;11.45;;
64598;SDS011;51008;51.504;11.548;2023-05-14T05:01:19;17.63;;;12.30;;
64598;SDS011;51008;51.504;11.548;2023-05-14T05:06:20;18.30;;;11.68;;
64598;SDS011;51008;51.504;11.548;2023-05-14T05:11:21;17.17;;;10.50;;
64598;SDS011;51008;51.504;11.548;2023-05-14T05:16:22;15.95;;;11.15;;
64598;SDS011;51008;51.504;11.548;2023-05-14T05:21:23;15.45;;;11.13;;
64598;SDS011;51008;51.504;11.548;2023-05-14T05:26:25;18.10;;;12.00;;
64598;SDS011;51008;51.504;11.548;2023-05-14T05:31:26;18.17;;;13.05;;
64598;SDS011;51008;51.504;11.548;2023-05-14T05:36:27;16.10;;;11.13;;
64598;SDS011;51008;51.504;11.548;2023-05-14T05:41:28;15.55;;;11.07;;
64598;SDS011;51008;51.504;11.548;2023-05-14T05:46:29;14.00;;;10.80;;
64598;SDS011;51008;51.504;11.548;2023-05-14T05:51:30;15.68;;;11.55;;
64598;SDS011;51008;51.504;11.548;2023-05-14T05:56:31;21.17;;;11.55;;
64598;SDS011;51008;51.504;11.548;2023-05-14T06:01:32;19.35;;;11.48;;
64598;SDS011;51008;51.504;11.548;2023-05-14T06:06:33;15.90;;;11.40;;
64598;SDS011;51008;51.504;11.548;2023-05-14T06:11:34;18.70;;;11.85;;
64598;SDS011;51008;51.504;11.548;2023-05-14T06:16:35;19.17;;;11.65;;
64598;SDS011;51008;51.504;11.548;2023-05-14T06:21:36;14.68;;;10.73;;
64598;SDS011;51008;51.504;11.548;2023-05-14T06:26:37;12.93;;;10.38;;
64598;SDS011;51008;51.504;11.548;2023-05-14T06:31:38;13.80;;;9.90;;
64598;SDS011;51008;51.504;11.548;2023-05-14T06:36:39;15.80;;;10.57;;
64598;SDS011;51008;51.504;11.548;2023-05-14T06:41:40;14.07;;;10.68;;
64598;SDS011;51008;51.504;11.548;2023-05-14T06:46:42;15.65;;;10.35;;
64598;SDS011;51008;51.504;11.548;2023-05-14T06:51:42;13.40;;;9.23;;
64598;SDS011;51008;51.504;11.548;2023-05-14T06:56:43;13.32;;;7.65;;
64598;SDS011;51008;51.504;11.548;2023-05-14T07:01:44;12.25;;;6.90;;
64598;SDS011;51008;51.504;11.548;2023-05-14T07:06:45;11.43;;;7.47;;
64598;SDS011;51008;51.504;11.548;2023-05-14T07:11:46;12.55;;;7.47;;
64598;SDS011;51008;51.504;11.548;2023-05-14T07:16:47;9.82;;;6.93;;
64598;SDS011;51008;51.504;11.548;2023-05-14T07:21:48;13.48;;;7.05;;
64598;SDS011;51008;51.504;11.548;2023-05-14T07:26:49;12.45;;;7.10;;
64598;SDS011;51008;51.504;11.548;2023-05-14T07:31:50;10.57;;;7.50;;
64598;SDS011;51008;51.504;11.548;2023-05-14T07:36:51;10.77;;;7.43;;
64598;SDS011;51008;51.504;11.548;2023-05-14T07:41:52;10.07;;;6.72;;
64598;SDS011;51008;51.504;11.548;2023-05-14T07:46:53;10.95;;;7.30;;
64598;SDS011;51008;51.504;11.548;2023-05-14T07:51:54;11.73;;;7.13;;
64598;SDS011;51008;51.504;11.548;2023-05-14T07:56:55;12.40;;;6.93;;
64598;SDS011;51008;51.504;11.548;2023-05-14T08:01:56;16.83;;;7.40;;
64598;SDS011;51008;51.504;11.548;2023-05-14T08:06:57;12.02;;;7.35;;
64598;SDS011;51008;51.504;11.548;2023-05-14T08:11:58;11.32;;;7.50;;
64598;SDS011;51008;51.504;11.548;2023-05-14T08:16:59;12.30;;;7.47;;
64598;SDS011;51008;51.504;11.548;2023-05-14T08:21:59;11.52;;;8.25;;
64598;SDS011;51008;51.504;11.548;2023-05-14T08:27:01;12.90;;;8.07;;
64598;SDS011;51008;51.504;11.548;2023-05-14T08:32:01;11.60;;;8.13;;
64598;SDS011;51008;51.504;11.548;2023-05-14T08:37:02;11.27;;;7.72;;
64598;SDS011;51008;51.504;11.548;2023-05-14T08:42:05;10.57;;;7.82;;
64598;SDS011;51008;51.504;11.548;2023-05-14T08:47:07;13.40;;;8.13;;
64598;SDS011;51008;51.504;11.548;2023-05-14T08:52:08;11.57;;;7.63;;
64598;SDS011;51008;51.504;11.548;2023-05-14T08:57:10;12.57;;;7.28;;
64598;SDS011;51008;51.504;11.548;2023-05-14T09:02:11;13.60;;;6.32;;
64598;SDS011;51008;51.504;11.548;2023-05-14T09:12:15;9.25;;;6.18;;
64598;SDS011;51008;51.504;11.548;2023-05-14T09:17:17;9.93;;;5.97;;
64598;SDS011;51008;51.504;11.548;2023-05-14T09:22:18;12.67;;;7.20;;
64598;SDS011;51008;51.504;11.548;2023-05-14T09:27:20;9.77;;;6.10;;
64598;SDS011;51008;51.504;11.548;2023-05-14T09:32:21;9.65;;;6.90;;
64598;SDS011;51008;51.504;11.548;2023-05-14T09:37:22;12.68;;;6.97;;
64598;SDS011;51008;51.504;11.548;2023-05-14T09:42:22;10.13;;;6.18;;
64598;SDS011;51008;51.504;11.548;2023-05-14T09:47:24;10.55;;;6.35;;
64598;SDS011;51008;51.504;11.548;2023-05-14T09:52:25;11.13;;;6.30;;
64598;SDS011;51008;51.504;11.548;2023-05-14T09:57:26;12.40;;;6.45;;
64598;SDS011;51008;51.504;11.548;2023-05-14T10:02:34;10.73;;;6.75;;
64598;SDS011;51008;51.504;11.548;2023-05-14T10:07:46;10.77;;;7.13;;
64598;SDS011;51008;51.504;11.548;2023-05-14T10:12:50;10.23;;;6.80;;
64598;SDS011;51008;51.504;11.548;2023-05-14T10:17:58;12.23;;;7.35;;
64598;SDS011;51008;51.504;11.548;2023-05-14T10:23:02;10.95;;;6.38;;
64598;SDS011;51008;51.504;11.548;2023-05-14T10:28:03;12.43;;;7.28;;
64598;SDS011;51008;51.504;11.548;2023-05-14T10:33:08;12.10;;;7.13;;
64598;SDS011;51008;51.504;11.548;2023-05-14T10:38:13;12.80;;;7.13;;
64598;SDS011;51008;51.504;11.548;2023-05-14T10:43:14;13.60;;;7.88;;
64598;SDS011;51008;51.504;11.548;2023-05-14T10:48:17;11.65;;;7.63;;
64598;SDS011;51008;51.504;11.548;2023-05-14T10:53:18;13.27;;;7.80;;
64598;SDS011;51008;51.504;11.548;2023-05-14T10:58:19;15.65;;;7.45;;
64598;SDS011;51008;51.504;11.548;2023-05-14T11:03:20;10.70;;;6.50;;
64598;SDS011;51008;51.504;11.548;2023-05-14T11:08:21;14.27;;;6.30;;
64598;SDS011;51008;51.504;11.548;2023-05-14T11:13:25;12.73;;;6.80;;
64598;SDS011;51008;51.504;11.548;2023-05-14T11:18:30;9.18;;;6.13;;
64598;SDS011;51008;51.504;11.548;2023-05-14T11:23:32;9.70;;;6.18;;
64598;SDS011;51008;51.504;11.548;2023-05-14T11:28:33;12.43;;;5.90;;
64598;SDS011;51008;51.504;11.548;2023-05-14T11:33:34;10.85;;;5.82;;
64598;SDS011;51008;51.504;11.548;2023-05-14T11:38:44;10.38;;;6.03;;
64598;SDS011;51008;51.504;11.548;2023-05-14T11:43:46;11.60;;;5.57;;
64598;SDS011;51008;51.504;11.548;2023-05-14T11:48:47;12.18;;;5.65;;
64598;SDS011;51008;51.504;11.548;2023-05-14T11:53:48;7.90;;;5.15;;
64598;SDS011;51008;51.504;11.548;2023-05-14T11:58:54;9.77;;;5.45;;
64598;SDS011;51008;51.504;11.548;2023-05-14T12:03:56;8.32;;;4.90;;
64598;SDS011;51008;51.504;11.548;2023-05-14T12:08:59;12.65;;;5.93;;
64598;SDS011;51008;51.504;11.548;2023-05-14T12:14:00;12.65;;;6.30;;
64598;SDS011;51008;51.504;11.548;2023-05-14T12:19:09;11.55;;;5.85;;
64598;SDS011;51008;51.504;11.548;2023-05-14T12:24:20;14.77;;;5.70;;
64598;SDS011;51008;51.504;11.548;2023-05-14T12:29:21;13.23;;;6.18;;
64598;SDS011;51008;51.504;11.548;2023-05-14T12:34:22;13.05;;;6.00;;
64598;SDS011;51008;51.504;11.548;2023-05-14T12:39:23;16.75;;;5.95;;
64598;SDS011;51008;51.504;11.548;2023-05-14T12:44:24;10.02;;;5.45;;
64598;SDS011;51008;51.504;11.548;2023-05-14T12:49:24;11.43;;;5.70;;
64598;SDS011;51008;51.504;11.548;2023-05-14T12:54:25;15.05;;;7.32;;
64598;SDS011;51008;51.504;11.548;2023-05-14T12:59:26;13.63;;;6.78;;
64598;SDS011;51008;51.504;11.548;2023-05-14T13:04:27;17.88;;;6.95;;
64598;SDS011;51008;51.504;11.548;2023-05-14T13:09:28;17.80;;;7.38;;
64598;SDS011;51008;51.504;11.548;2023-05-14T13:14:29;11.77;;;6.07;;
64598;SDS011;51008;51.504;11.548;2023-05-14T13:19:30;11.48;;;6.85;;
64598;SDS011;51008;51.504;11.548;2023-05-14T13:24:31;14.48;;;6.35;;
64598;SDS011;51008;51.504;11.548;2023-05-14T13:29:32;14.07;;;7.18;;
64598;SDS011;51008;51.504;11.548;2023-05-14T13:34:33;11.15;;;6.60;;
64598;SDS011;51008;51.504;11.548;2023-05-14T13:39:34;11.00;;;7.35;;
64598;SDS011;51008;51.504;11.548;2023-05-14T13:44:35;11.52;;;6.45;;
64598;SDS011;51008;51.504;11.548;2023-05-14T13:49:36;11.23;;;6.35;;
64598;SDS011;51008;51.504;11.548;2023-05-14T13:54:37;11.60;;;6.93;;
64598;SDS011;51008;51.504;11.548;2023-05-14T13:59:37;13.40;;;6.97;;
64598;SDS011;51008;51.504;11.548;2023-05-14T14:04:39;12.85;;;6.85;;
64598;SDS011;51008;51.504;11.548;2023-05-14T14:09:39;11.60;;;6.95;;
64598;SDS011;51008;51.504;11.548;2023-05-14T14:14:40;13.93;;;7.50;;
64598;SDS011;51008;51.504;11.548;2023-05-14T14:19:41;11.13;;;6.20;;
64598;SDS011;51008;51.504;11.548;2023-05-14T14:24:42;11.30;;;6.70;;
64598;SDS011;51008;51.504;11.548;2023-05-14T14:29:43;9.93;;;6.00;;
64598;SDS011;51008;51.504;11.548;2023-05-14T14:34:44;11.13;;;6.47;;
64598;SDS011;51008;51.504;11.548;2023-05-14T14:39:45;10.95;;;5.80;;
64598;SDS011;51008;51.504;11.548;2023-05-14T14:44:46;13.02;;;5.88;;
64598;SDS011;51008;51.504;11.548;2023-05-14T14:49:47;13.00;;;5.60;;
64598;SDS011;51008;51.504;11.548;2023-05-14T14:54:48;9.35;;;5.20;;
64598;SDS011;51008;51.504;11.548;2023-05-14T14:59:49;10.60;;;5.57;;
64598;SDS011;51008;51.504;11.548;2023-05-14T15:04:50;8.32;;;5.70;;
64598;SDS011;51008;51.504;11.548;2023-05-14T15:09:51;8.05;;;4.80;;
64598;SDS011;51008;51.504;11.548;2023-05-14T15:14:52;10.50;;;5.35;;
64598;SDS011;51008;51.504;11.548;2023-05-14T15:19:53;14.63;;;5.22;;
64598;SDS011;51008;51.504;11.548;2023-05-14T15:24:54;8.18;;;5.50;;
64598;SDS011;51008;51.504;11.548;2023-05-14T15:29:55;9.73;;;5.45;;
64598;SDS011;51008;51.504;11.548;2023-05-14T15:34:56;8.55;;;5.20;;
64598;SDS011;51008;51.504;11.548;2023-05-14T15:39:56;9.57;;;5.70;;
64598;SDS011;51008;51.504;11.548;2023-05-14T15:44:58;8.40;;;5.20;;
64598;SDS011;51008;51.504;11.548;2023-05-14T15:49:59;9.75;;;5.53;;
64598;SDS011;51008;51.504;11.548;2023-05-14T15:55:00;10.20;;;5.63;;
64598;SDS011;51008;51.504;11.548;2023-05-14T16:00:02;8.75;;;5.60;;
64598;SDS011;51008;51.504;11.548;2023-05-14T16:05:05;8.85;;;5.85;;
64598;SDS011;51008;51.504;11.548;2023-05-14T16:10:07;7.97;;;6.10;;
64598;SDS011;51008;51.504;11.548;2023-05-14T16:15:08;11.88;;;6.00;;
64598;SDS011;51008;51.504;11.548;2023-05-14T16:20:10;9.80;;;6.15;;
64598;SDS011;51008;51.504;11.548;2023-05-14T16:25:11;10.93;;;6.38;;
64598;SDS011;51008;51.504;11.548;2023-05-14T16:30:12;13.57;;;7.80;;
64598;SDS011;51008;51.504;11.548;2023-05-14T16:35:16;28.17;;;14.30;;
64598;SDS011;51008;51.504;11.548;2023-05-14T16:40:17;32.30;;;20.75;;
64598;SDS011;51008;51.504;11.548;2023-05-14T16:45:18;14.35;;;9.05;;
64598;SDS011;51008;51.504;11.548;2023-05-14T16:50:19;18.80;;;10.98;;
64598;SDS011;51008;51.504;11.548;2023-05-14T16:55:20;25.65;;;15.82;;
64598;SDS011;51008;51.504;11.548;2023-05-14T17:00:21;35.80;;;20.23;;
64598;SDS011;51008;51.504;11.548;2023-05-14T17:05:22;35.97;;;18.75;;
64598;SDS011;51008;51.504;11.548;2023-05-14T17:10:23;9.85;;;6.57;;
64598;SDS011;51008;51.504;11.548;2023-05-14T17:15:24;10.95;;;6.20;;
64598;SDS011;51008;51.504;11.548;2023-05-14T17:20:25;8.32;;;5.70;;
64598;SDS011;51008;51.504;11.548;2023-05-14T17:25:26;8.07;;;6.10;;
64598;SDS011;51008;51.504;11.548;2023-05-14T17:30:27;15.98;;;6.18;;
64598;SDS011;51008;51.504;11.548;2023-05-14T17:35:28;8.65;;;5.18;;
64598;SDS011;51008;51.504;11.548;2023-05-14T17:40:29;13.77;;;8.77;;
64598;SDS011;51008;51.504;11.548;2023-05-14T17:45:30;18.23;;;12.18;;
64598;SDS011;51008;51.504;11.548;2023-05-14T17:50:31;28.92;;;23.83;;
64598;SDS011;51008;51.504;11.548;2023-05-14T17:55:32;14.85;;;6.20;;
64598;SDS011;51008;51.504;11.548;2023-05-14T18:00:33;11.40;;;6.35;;
64598;SDS011;51008;51.504;11.548;2023-05-14T18:05:34;10.00;;;6.25;;
64598;SDS011;51008;51.504;11.548;2023-05-14T18:10:36;9.30;;;6.20;;
64598;SDS011;51008;51.504;11.548;2023-05-14T18:15:37;13.38;;;6.18;;
64598;SDS011;51008;51.504;11.548;2023-05-14T18:20:38;10.15;;;6.43;;
64598;SDS011;51008;51.504;11.548;2023-05-14T18:25:39;11.13;;;5.95;;
64598;SDS011;51008;51.504;11.548;2023-05-14T18:30:40;10.25;;;6.28;;
64598;SDS011;51008;51.504;11.548;2023-05-14T18:35:41;11.38;;;7.35;;
64598;SDS011;51008;51.504;11.548;2023-05-14T18:40:42;27.48;;;11.20;;
64598;SDS011;51008;51.504;11.548;2023-05-14T18:45:43;18.58;;;10.40;;
64598;SDS011;51008;51.504;11.548;2023-05-14T18:50:45;21.27;;;11.23;;
64598;SDS011;51008;51.504;11.548;2023-05-14T18:55:46;18.38;;;9.82;;
64598;SDS011;51008;51.504;11.548;2023-05-14T19:00:47;18.55;;;9.20;;
64598;SDS011;51008;51.504;11.548;2023-05-14T19:05:48;13.27;;;8.07;;
64598;SDS011;51008;51.504;11.548;2023-05-14T19:10:49;13.30;;;7.15;;
64598;SDS011;51008;51.504;11.548;2023-05-14T19:15:50;10.88;;;7.10;;
64598;SDS011;51008;51.504;11.548;2023-05-14T19:20:51;12.30;;;7.43;;
64598;SDS011;51008;51.504;11.548;2023-05-14T19:25:52;9.80;;;7.22;;
64598;SDS011;51008;51.504;11.548;2023-05-14T19:30:53;9.00;;;6.22;;
64598;SDS011;51008;51.504;11.548;2023-05-14T19:35:54;13.85;;;6.72;;
64598;SDS011;51008;51.504;11.548;2023-05-14T19:40:56;11.52;;;6.30;;
64598;SDS011;51008;51.504;11.548;2023-05-14T19:45:57;12.77;;;6.88;;
64598;SDS011;51008;51.504;11.548;2023-05-14T19:50:58;9.05;;;6.43;;
64598;SDS011;51008;51.504;11.548;2023-05-14T19:55:59;8.18;;;5.90;;
64598;SDS011;51008;51.504;11.548;2023-05-14T20:01:00;10.18;;;6.05;;
64598;SDS011;51008;51.504;11.548;2023-05-14T20:06:01;10.15;;;7.50;;
64598;SDS011;51008;51.504;11.548;2023-05-14T20:11:02;10.07;;;6.60;;
64598;SDS011;51008;51.504;11.548;2023-05-14T20:16:03;10.63;;;6.82;;
64598;SDS011;51008;51.504;11.548;2023-05-14T20:21:04;9.88;;;6.68;;
64598;SDS011;51008;51.504;11.548;2023-05-14T20:26:05;10.52;;;6.88;;
64598;SDS011;51008;51.504;11.548;2023-05-14T20:31:06;10.82;;;6.13;;
64598;SDS011;51008;51.504;11.548;2023-05-14T20:36:07;13.38;;;6.47;;
64598;SDS011;51008;51.504;11.548;2023-05-14T20:41:08;11.32;;;6.47;;
64598;SDS011;51008;51.504;11.548;2023-05-14T20:46:09;10.43;;;6.60;;
64598;SDS011;51008;51.504;11.548;2023-05-14T20:51:10;11.38;;;7.00;;
64598;SDS011;51008;51.504;11.548;2023-05-14T20:56:11;11.88;;;7.50;;
64598;SDS011;51008;51.504;11.548;2023-05-14T21:01:12;11.48;;;7.75;;
64598;SDS011;51008;51.504;11.548;2023-05-14T21:06:13;11.65;;;7.15;;
64598;SDS011;51008;51.504;11.548;2023-05-14T21:11:14;10.77;;;7.38;;
64598;SDS011;51008;51.504;11.548;2023-05-14T21:16:15;12.07;;;7.80;;
64598;SDS011;51008;51.504;11.548;2023-05-14T21:21:16;11.98;;;7.70;;
64598;SDS011;51008;51.504;11.548;2023-05-14T21:26:17;11.05;;;7.50;;
64598;SDS011;51008;51.504;11.548;2023-05-14T21:31:18;9.32;;;6.88;;
64598;SDS011;51008;51.504;11.548;2023-05-14T21:36:18;11.80;;;7.40;;
64598;SDS011;51008;51.504;11.548;2023-05-14T21:41:20;9.98;;;6.97;;
64598;SDS011;51008;51.504;11.548;2023-05-14T21:46:20;11.88;;;7.03;;
64598;SDS011;51008;51.504;11.548;2023-05-14T21:51:22;14.82;;;7.57;;
64598;SDS011;51008;51.504;11.548;2023-05-14T21:56:24;11.63;;;7.70;;
64598;SDS011;51008;51.504;11.548;2023-05-14T22:01:25;13.43;;;7.50;;
64598;SDS011;51008;51.504;11.548;2023-05-14T22:06:26;9.77;;;7.57;;
64598;SDS011;51008;51.504;11.548;2023-05-14T22:11:26;12.50;;;8.10;;
64598;SDS011;51008;51.504;11.548;2023-05-14T22:16:27;11.95;;;7.63;;
64598;SDS011;51008;51.504;11.548;2023-05-14T22:21:28;11.15;;;8.15;;
64598;SDS011;51008;51.504;11.548;2023-05-14T22:26:29;12.55;;;9.13;;
64598;SDS011;51008;51.504;11.548;2023-05-14T22:31:30;12.18;;;8.88;;
64598;SDS011;51008;51.504;11.548;2023-05-14T22:36:31;14.48;;;9.30;;
64598;SDS011;51008;51.504;11.548;2023-05-14T22:41:32;12.48;;;8.40;;
64598;SDS011;51008;51.504;11.548;2023-05-14T22:46:33;12.65;;;8.93;;
64598;SDS011;51008;51.504;11.548;2023-05-14T22:51:34;15.13;;;8.43;;
64598;SDS011;51008;51.504;11.548;2023-05-14T22:56:35;13.88;;;8.43;;
64598;SDS011;51008;51.504;11.548;2023-05-14T23:01:37;16.05;;;8.80;;
64598;SDS011;51008;51.504;11.548;2023-05-14T23:06:38;17.65;;;8.63;;
64598;SDS011;51008;51.504;11.548;2023-05-14T23:11:39;12.55;;;9.30;;
64598;SDS011;51008;51.504;11.548;2023-05-14T23:16:40;13.20;;;8.88;;
64598;SDS011;51008;51.504;11.548;2023-05-14T23:21:41;15.18;;;9.38;;
64598;SDS011;51008;51.504;11.548;2023-05-14T23:26:42;13.15;;;8.50;;
64598;SDS011;51008;51.504;11.548;2023-05-14T23:31:43;13.95;;;9.38;;
64598;SDS011;51008;51.504;11.548;2023-05-14T23:36:44;13.65;;;9.48;;
64598;SDS011;51008;51.504;11.548;2023-05-14T23:41:45;13.57;;;8.27;;
64598;SDS011;51008;51.504;11.548;2023-05-14T23:46:46;15.93;;;8.90;;
64598;SDS011;51008;51.504;11.548;2023-05-14T23:51:47;13.43;;;8.60;;
64598;SDS011;51008;51.504;11.548;2023-05-14T23:56:47;12.70;;;8.90;;
